Aden, Illinois
Current Conditions -  °F | °C
As of 6:35 AM on Sunday 21 Dec 2014 (Local Time) from KFWC Reporting Station
Haze Haze  
Wind Chill: -3°   Ceiling: Unl
Heat Index: -3°   Visibility: 5mi
Dew Point: -4°   Wind: 0mph
Humidity: 93%   Direction: NA
Pressure: 30.27"   Gusts: NA
Location:  38.3069°N, 88.55°W
Report Text: KFWC 211235Z AUTO 00000KT 5SM BR CLR M03/M04 A3027 RMK AO1 T10301040
Loading
Personal Weather Stations






























Interactive Weather Map New forecast layout! Learn more

10-Day Weather Forecast

Advertisements
Track Severe Weather on mobile